sensor_id;sensor_type;location;lat;lon;timestamp;temperature;humidity
13699;DHT22;6921;53.642;9.956;2022-09-03T00:02:05;16.40;90.60
13699;DHT22;6921;53.642;9.956;2022-09-03T00:04:15;16.30;89.90
13699;DHT22;6921;53.642;9.956;2022-09-03T00:06:24;16.20;89.80
13699;DHT22;6921;53.642;9.956;2022-09-03T00:08:32;16.20;90.50
13699;DHT22;6921;53.642;9.956;2022-09-03T00:10:42;16.20;91.00
13699;DHT22;6921;53.642;9.956;2022-09-03T00:12:46;16.30;90.50
13699;DHT22;6921;53.642;9.956;2022-09-03T00:14:54;16.20;90.70
13699;DHT22;6921;53.642;9.956;2022-09-03T00:17:01;16.30;90.90
13699;DHT22;6921;53.642;9.956;2022-09-03T00:21:15;16.20;91.50
13699;DHT22;6921;53.642;9.956;2022-09-03T00:23:21;16.10;91.80
13699;DHT22;6921;53.642;9.956;2022-09-03T00:25:28;16.20;92.20
13699;DHT22;6921;53.642;9.956;2022-09-03T00:27:36;16.10;92.20
13699;DHT22;6921;53.642;9.956;2022-09-03T00:29:45;16.10;91.60
13699;DHT22;6921;53.642;9.956;2022-09-03T00:31:53;16.10;91.90
13699;DHT22;6921;53.642;9.956;2022-09-03T00:34:02;16.10;92.40
13699;DHT22;6921;53.642;9.956;2022-09-03T00:36:13;16.00;91.80
13699;DHT22;6921;53.642;9.956;2022-09-03T00:40:35;16.00;92.10
13699;DHT22;6921;53.642;9.956;2022-09-03T00:42:49;15.90;93.10
13699;DHT22;6921;53.642;9.956;2022-09-03T00:45:07;15.90;92.90
13699;DHT22;6921;53.642;9.956;2022-09-03T00:47:17;15.80;93.80
13699;DHT22;6921;53.642;9.956;2022-09-03T00:49:30;17.70;93.70
13699;DHT22;6921;53.642;9.956;2022-09-03T00:51:41;15.90;93.20
13699;DHT22;6921;53.642;9.956;2022-09-03T00:53:51;15.80;92.90
13699;DHT22;6921;53.642;9.956;2022-09-03T00:55:58;15.80;94.00
13699;DHT22;6921;53.642;9.956;2022-09-03T00:58:17;15.70;93.70
13699;DHT22;6921;53.642;9.956;2022-09-03T01:02:34;15.70;94.10
13699;DHT22;6921;53.642;9.956;2022-09-03T01:04:48;15.70;95.10
13699;DHT22;6921;53.642;9.956;2022-09-03T01:06:59;15.60;95.40
13699;DHT22;6921;53.642;9.956;2022-09-03T01:09:18;15.60;94.50
13699;DHT22;6921;53.642;9.956;2022-09-03T01:11:29;15.60;94.50
13699;DHT22;6921;53.642;9.956;2022-09-03T01:13:38;18.30;97.00
13699;DHT22;6921;53.642;9.956;2022-09-03T01:15:48;15.60;95.50
13699;DHT22;6921;53.642;9.956;2022-09-03T01:18:06;15.60;95.20
13699;DHT22;6921;53.642;9.956;2022-09-03T01:20:26;15.50;96.30
13699;DHT22;6921;53.642;9.956;2022-09-03T01:22:51;15.50;96.30
13699;DHT22;6921;53.642;9.956;2022-09-03T01:25:12;15.60;96.80
13699;DHT22;6921;53.642;9.956;2022-09-03T01:27:31;17.60;97.60
13699;DHT22;6921;53.642;9.956;2022-09-03T01:29:42;15.50;97.00
13699;DHT22;6921;53.642;9.956;2022-09-03T01:32:00;15.40;95.80
13699;DHT22;6921;53.642;9.956;2022-09-03T01:34:12;15.40;96.50
13699;DHT22;6921;53.642;9.956;2022-09-03T01:36:21;15.40;96.30
13699;DHT22;6921;53.642;9.956;2022-09-03T01:38:31;15.40;96.90
13699;DHT22;6921;53.642;9.956;2022-09-03T01:40:42;15.30;97.10
13699;DHT22;6921;53.642;9.956;2022-09-03T01:43:02;15.00;97.00
13699;DHT22;6921;53.642;9.956;2022-09-03T01:45:25;15.30;97.40
13699;DHT22;6921;53.642;9.956;2022-09-03T01:47:41;15.30;97.60
13699;DHT22;6921;53.642;9.956;2022-09-03T01:49:54;15.30;97.00
13699;DHT22;6921;53.642;9.956;2022-09-03T01:52:05;15.30;97.50
13699;DHT22;6921;53.642;9.956;2022-09-03T01:54:26;15.20;97.20
13699;DHT22;6921;53.642;9.956;2022-09-03T01:56:46;15.30;97.90
13699;DHT22;6921;53.642;9.956;2022-09-03T01:58:55;15.30;98.50
13699;DHT22;6921;53.642;9.956;2022-09-03T02:01:10;15.20;98.00
13699;DHT22;6921;53.642;9.956;2022-09-03T02:05:21;15.10;98.30
13699;DHT22;6921;53.642;9.956;2022-09-03T02:07:29;15.10;99.10
13699;DHT22;6921;53.642;9.956;2022-09-03T02:09:34;15.00;99.30
13699;DHT22;6921;53.642;9.956;2022-09-03T02:13:43;15.10;98.20
13699;DHT22;6921;53.642;9.956;2022-09-03T02:15:48;15.00;98.90
13699;DHT22;6921;53.642;9.956;2022-09-03T02:17:59;15.00;98.50
13699;DHT22;6921;53.642;9.956;2022-09-03T02:20:06;15.00;98.00
13699;DHT22;6921;53.642;9.956;2022-09-03T02:26:21;15.00;98.20
13699;DHT22;6921;53.642;9.956;2022-09-03T02:28:26;16.40;99.60
13699;DHT22;6921;53.642;9.956;2022-09-03T02:34:38;15.00;99.50
13699;DHT22;6921;53.642;9.956;2022-09-03T02:36:42;14.90;99.40
13699;DHT22;6921;53.642;9.956;2022-09-03T02:45:03;14.90;98.90
13699;DHT22;6921;53.642;9.956;2022-09-03T02:49:13;14.80;99.40
13699;DHT22;6921;53.642;9.956;2022-09-03T02:55:24;14.80;99.90
13699;DHT22;6921;53.642;9.956;2022-09-03T03:01:35;14.70;99.90
13699;DHT22;6921;53.642;9.956;2022-09-03T03:05:44;14.60;99.90
13699;DHT22;6921;53.642;9.956;2022-09-03T03:16:04;14.30;99.90
13699;DHT22;6921;53.642;9.956;2022-09-03T03:24:20;14.40;99.90
13699;DHT22;6921;53.642;9.956;2022-09-03T03:30:33;14.30;99.90
13699;DHT22;6921;53.642;9.956;2022-09-03T03:40:50;14.20;99.90
13699;DHT22;6921;53.642;9.956;2022-09-03T03:47:01;14.10;99.90
13699;DHT22;6921;53.642;9.956;2022-09-03T03:49:07;14.00;99.90
13699;DHT22;6921;53.642;9.956;2022-09-03T03:57:23;13.90;99.90
13699;DHT22;6921;53.642;9.956;2022-09-03T04:13:55;14.00;99.90
13699;DHT22;6921;53.642;9.956;2022-09-03T04:16:01;14.00;99.90
13699;DHT22;6921;53.642;9.956;2022-09-03T04:18:05;14.10;99.90
13699;DHT22;6921;53.642;9.956;2022-09-03T04:26:21;13.90;99.90
13699;DHT22;6921;53.642;9.956;2022-09-03T04:30:28;14.00;99.90
13699;DHT22;6921;53.642;9.956;2022-09-03T04:41:04;13.90;99.90
13699;DHT22;6921;53.642;9.956;2022-09-03T04:47:20;13.80;99.90
13699;DHT22;6921;53.642;9.956;2022-09-03T04:51:27;13.80;99.90
13699;DHT22;6921;53.642;9.956;2022-09-03T04:53:33;13.80;99.90
13699;DHT22;6921;53.642;9.956;2022-09-03T04:55:37;13.80;99.90
13699;DHT22;6921;53.642;9.956;2022-09-03T05:03:52;13.90;99.90
13699;DHT22;6921;53.642;9.956;2022-09-03T05:05:55;13.80;99.90
13699;DHT22;6921;53.642;9.956;2022-09-03T05:10:04;13.90;99.90
13699;DHT22;6921;53.642;9.956;2022-09-03T05:20:23;14.10;99.90
13699;DHT22;6921;53.642;9.956;2022-09-03T05:26:36;14.00;99.90
13699;DHT22;6921;53.642;9.956;2022-09-03T05:28:41;14.20;99.90
13699;DHT22;6921;53.642;9.956;2022-09-03T05:36:55;14.20;99.90
13699;DHT22;6921;53.642;9.956;2022-09-03T05:41:04;14.30;99.90
13699;DHT22;6921;53.642;9.956;2022-09-03T05:53:25;14.40;99.90
13699;DHT22;6921;53.642;9.956;2022-09-03T06:01:39;14.60;99.90
13699;DHT22;6921;53.642;9.956;2022-09-03T06:03:45;14.70;99.90
13699;DHT22;6921;53.642;9.956;2022-09-03T06:05:49;14.80;99.90
13699;DHT22;6921;53.642;9.956;2022-09-03T06:09:57;15.00;99.10
13699;DHT22;6921;53.642;9.956;2022-09-03T06:14:06;15.30;99.20
13699;DHT22;6921;53.642;9.956;2022-09-03T06:18:12;15.50;99.00
13699;DHT22;6921;53.642;9.956;2022-09-03T06:26:31;16.60;93.60
13699;DHT22;6921;53.642;9.956;2022-09-03T06:28:37;17.00;91.80
13699;DHT22;6921;53.642;9.956;2022-09-03T06:38:55;18.20;84.80
13699;DHT22;6921;53.642;9.956;2022-09-03T06:40:59;18.20;85.30
13699;DHT22;6921;53.642;9.956;2022-09-03T06:43:06;18.40;82.30
13699;DHT22;6921;53.642;9.956;2022-09-03T06:45:09;18.50;83.60
13699;DHT22;6921;53.642;9.956;2022-09-03T06:49:16;18.80;84.50
13699;DHT22;6921;53.642;9.956;2022-09-03T06:51:21;18.90;79.40
13699;DHT22;6921;53.642;9.956;2022-09-03T06:53:25;18.90;79.60
13699;DHT22;6921;53.642;9.956;2022-09-03T06:55:28;19.20;80.30
13699;DHT22;6921;53.642;9.956;2022-09-03T06:59:36;18.70;79.80
13699;DHT22;6921;53.642;9.956;2022-09-03T07:01:40;18.70;79.70
13699;DHT22;6921;53.642;9.956;2022-09-03T07:03:47;18.60;79.70
13699;DHT22;6921;53.642;9.956;2022-09-03T07:05:59;18.60;79.70
13699;DHT22;6921;53.642;9.956;2022-09-03T07:08:02;18.70;80.90
13699;DHT22;6921;53.642;9.956;2022-09-03T07:14:18;18.50;82.30
13699;DHT22;6921;53.642;9.956;2022-09-03T07:16:24;18.40;81.50
13699;DHT22;6921;53.642;9.956;2022-09-03T07:18:29;18.50;82.00
13699;DHT22;6921;53.642;9.956;2022-09-03T07:26:43;18.30;81.00
13699;DHT22;6921;53.642;9.956;2022-09-03T07:32:56;19.00;80.00
13699;DHT22;6921;53.642;9.956;2022-09-03T07:37:06;19.60;78.80
13699;DHT22;6921;53.642;9.956;2022-09-03T07:39:10;19.80;77.30
13699;DHT22;6921;53.642;9.956;2022-09-03T07:41:14;20.00;78.10
13699;DHT22;6921;53.642;9.956;2022-09-03T07:47:25;19.70;76.60
13699;DHT22;6921;53.642;9.956;2022-09-03T07:49:32;20.00;76.30
13699;DHT22;6921;53.642;9.956;2022-09-03T07:51:37;20.00;75.80
13699;DHT22;6921;53.642;9.956;2022-09-03T08:03:58;19.70;77.70
13699;DHT22;6921;53.642;9.956;2022-09-03T08:06:05;17.40;73.90
13699;DHT22;6921;53.642;9.956;2022-09-03T08:12:19;20.00;75.40
13699;DHT22;6921;53.642;9.956;2022-09-03T08:16:26;19.80;76.10
13699;DHT22;6921;53.642;9.956;2022-09-03T08:18:30;19.80;77.20
13699;DHT22;6921;53.642;9.956;2022-09-03T08:20:36;20.10;77.00
13699;DHT22;6921;53.642;9.956;2022-09-03T08:22:41;19.90;76.00
13699;DHT22;6921;53.642;9.956;2022-09-03T08:33:00;19.40;76.20
13699;DHT22;6921;53.642;9.956;2022-09-03T08:35:06;19.50;76.60
13699;DHT22;6921;53.642;9.956;2022-09-03T08:39:15;19.80;76.00
13699;DHT22;6921;53.642;9.956;2022-09-03T08:41:20;19.90;74.60
13699;DHT22;6921;53.642;9.956;2022-09-03T08:45:28;20.30;75.80
13699;DHT22;6921;53.642;9.956;2022-09-03T08:47:36;20.40;74.50
13699;DHT22;6921;53.642;9.956;2022-09-03T08:49:45;19.50;73.00
13699;DHT22;6921;53.642;9.956;2022-09-03T08:51:51;20.40;75.10
13699;DHT22;6921;53.642;9.956;2022-09-03T08:53:57;20.50;74.10
13699;DHT22;6921;53.642;9.956;2022-09-03T08:56:08;20.40;74.10
13699;DHT22;6921;53.642;9.956;2022-09-03T08:58:14;20.40;74.80
13699;DHT22;6921;53.642;9.956;2022-09-03T09:00:18;20.60;73.60
13699;DHT22;6921;53.642;9.956;2022-09-03T09:02:25;20.50;72.10
13699;DHT22;6921;53.642;9.956;2022-09-03T09:04:43;20.40;72.40
13699;DHT22;6921;53.642;9.956;2022-09-03T09:06:55;20.30;72.10
13699;DHT22;6921;53.642;9.956;2022-09-03T09:09:11;20.40;73.30
13699;DHT22;6921;53.642;9.956;2022-09-03T09:11:28;20.60;72.50
13699;DHT22;6921;53.642;9.956;2022-09-03T09:13:40;20.70;72.10
13699;DHT22;6921;53.642;9.956;2022-09-03T09:15:50;20.60;69.70
13699;DHT22;6921;53.642;9.956;2022-09-03T09:18:05;20.60;71.20
13699;DHT22;6921;53.642;9.956;2022-09-03T09:20:18;20.60;71.10
13699;DHT22;6921;53.642;9.956;2022-09-03T09:22:27;20.60;69.60
13699;DHT22;6921;53.642;9.956;2022-09-03T09:24:36;16.80;66.00
13699;DHT22;6921;53.642;9.956;2022-09-03T09:26:41;20.70;71.10
13699;DHT22;6921;53.642;9.956;2022-09-03T09:28:49;20.70;69.90
13699;DHT22;6921;53.642;9.956;2022-09-03T09:30:56;20.80;70.20
13699;DHT22;6921;53.642;9.956;2022-09-03T09:37:09;20.90;67.80
13699;DHT22;6921;53.642;9.956;2022-09-03T09:41:19;21.10;67.30
13699;DHT22;6921;53.642;9.956;2022-09-03T09:43:31;21.20;67.80
13699;DHT22;6921;53.642;9.956;2022-09-03T09:47:40;21.20;67.10
13699;DHT22;6921;53.642;9.956;2022-09-03T09:49:51;21.10;65.30
13699;DHT22;6921;53.642;9.956;2022-09-03T09:52:09;21.00;66.30
13699;DHT22;6921;53.642;9.956;2022-09-03T09:54:15;21.00;66.00
13699;DHT22;6921;53.642;9.956;2022-09-03T09:56:22;20.90;64.70
13699;DHT22;6921;53.642;9.956;2022-09-03T09:58:26;21.30;64.30
13699;DHT22;6921;53.642;9.956;2022-09-03T10:02:38;21.40;61.00
13699;DHT22;6921;53.642;9.956;2022-09-03T10:06:53;21.40;60.80
13699;DHT22;6921;53.642;9.956;2022-09-03T10:09:05;21.50;61.90
13699;DHT22;6921;53.642;9.956;2022-09-03T10:13:15;21.60;59.20
13699;DHT22;6921;53.642;9.956;2022-09-03T10:15:24;21.50;60.50
13699;DHT22;6921;53.642;9.956;2022-09-03T10:17:52;21.70;59.40
13699;DHT22;6921;53.642;9.956;2022-09-03T10:20:00;21.90;58.80
13699;DHT22;6921;53.642;9.956;2022-09-03T10:24:35;22.00;57.00
13699;DHT22;6921;53.642;9.956;2022-09-03T10:26:40;22.20;57.40
13699;DHT22;6921;53.642;9.956;2022-09-03T10:28:48;22.50;56.70
13699;DHT22;6921;53.642;9.956;2022-09-03T10:33:30;22.80;56.50
13699;DHT22;6921;53.642;9.956;2022-09-03T10:35:41;22.70;53.20
13699;DHT22;6921;53.642;9.956;2022-09-03T10:37:52;22.40;51.40
13699;DHT22;6921;53.642;9.956;2022-09-03T10:40:05;22.20;51.90
13699;DHT22;6921;53.642;9.956;2022-09-03T10:44:34;22.50;49.10
13699;DHT22;6921;53.642;9.956;2022-09-03T10:46:52;22.50;48.90
13699;DHT22;6921;53.642;9.956;2022-09-03T10:49:17;22.50;49.50
13699;DHT22;6921;53.642;9.956;2022-09-03T10:51:25;22.30;49.60
13699;DHT22;6921;53.642;9.956;2022-09-03T10:53:45;22.30;48.40
13699;DHT22;6921;53.642;9.956;2022-09-03T10:55:57;22.60;48.50
13699;DHT22;6921;53.642;9.956;2022-09-03T10:58:11;22.90;49.30
13699;DHT22;6921;53.642;9.956;2022-09-03T11:00:18;23.00;49.50
13699;DHT22;6921;53.642;9.956;2022-09-03T11:02:39;23.20;49.00
13699;DHT22;6921;53.642;9.956;2022-09-03T11:04:52;23.20;47.20
13699;DHT22;6921;53.642;9.956;2022-09-03T11:07:00;23.20;45.60
13699;DHT22;6921;53.642;9.956;2022-09-03T11:09:11;23.20;47.60
13699;DHT22;6921;53.642;9.956;2022-09-03T11:11:18;23.20;46.90
13699;DHT22;6921;53.642;9.956;2022-09-03T11:13:26;23.20;47.70
13699;DHT22;6921;53.642;9.956;2022-09-03T11:15:33;22.90;45.70
13699;DHT22;6921;53.642;9.956;2022-09-03T11:17:39;22.80;45.90
13699;DHT22;6921;53.642;9.956;2022-09-03T11:19:47;22.70;45.70
13699;DHT22;6921;53.642;9.956;2022-09-03T11:21:53;22.50;46.30
13699;DHT22;6921;53.642;9.956;2022-09-03T11:24:04;22.50;45.20
13699;DHT22;6921;53.642;9.956;2022-09-03T11:26:11;22.30;44.80
13699;DHT22;6921;53.642;9.956;2022-09-03T11:28:22;18.50;41.40
13699;DHT22;6921;53.642;9.956;2022-09-03T11:30:36;22.40;45.40
13699;DHT22;6921;53.642;9.956;2022-09-03T11:32:46;22.50;47.00
13699;DHT22;6921;53.642;9.956;2022-09-03T11:37:16;22.60;45.10
13699;DHT22;6921;53.642;9.956;2022-09-03T11:39:23;22.70;45.00
13699;DHT22;6921;53.642;9.956;2022-09-03T11:41:33;22.60;44.70
13699;DHT22;6921;53.642;9.956;2022-09-03T11:45:40;22.30;44.40
13699;DHT22;6921;53.642;9.956;2022-09-03T11:49:49;22.40;45.60
13699;DHT22;6921;53.642;9.956;2022-09-03T11:51:57;22.40;43.00
13699;DHT22;6921;53.642;9.956;2022-09-03T11:54:03;22.70;43.30
13699;DHT22;6921;53.642;9.956;2022-09-03T11:56:17;23.40;42.90
13699;DHT22;6921;53.642;9.956;2022-09-03T11:58:24;24.20;40.40
13699;DHT22;6921;53.642;9.956;2022-09-03T12:02:34;24.60;36.90
13699;DHT22;6921;53.642;9.956;2022-09-03T12:04:45;24.50;36.70
13699;DHT22;6921;53.642;9.956;2022-09-03T12:09:50;24.10;34.90
13699;DHT22;6921;53.642;9.956;2022-09-03T12:12:09;23.70;36.40
13699;DHT22;6921;53.642;9.956;2022-09-03T12:14:19;23.70;36.00
13699;DHT22;6921;53.642;9.956;2022-09-03T12:16:36;24.20;36.40
13699;DHT22;6921;53.642;9.956;2022-09-03T12:18:43;24.80;35.20
13699;DHT22;6921;53.642;9.956;2022-09-03T12:21:01;25.30;32.90
13699;DHT22;6921;53.642;9.956;2022-09-03T12:25:12;22.50;30.40
13699;DHT22;6921;53.642;9.956;2022-09-03T12:27:18;26.80;29.50
13699;DHT22;6921;53.642;9.956;2022-09-03T12:29:26;27.60;28.00
13699;DHT22;6921;53.642;9.956;2022-09-03T12:31:31;27.70;26.10
13699;DHT22;6921;53.642;9.956;2022-09-03T12:33:40;27.40;26.20
13699;DHT22;6921;53.642;9.956;2022-09-03T12:38:02;28.00;24.90
13699;DHT22;6921;53.642;9.956;2022-09-03T12:40:18;28.10;23.50
13699;DHT22;6921;53.642;9.956;2022-09-03T12:42:24;30.10;23.90
13699;DHT22;6921;53.642;9.956;2022-09-03T12:44:29;27.50;22.80
13699;DHT22;6921;53.642;9.956;2022-09-03T12:50:46;28.60;20.50
13699;DHT22;6921;53.642;9.956;2022-09-03T12:52:58;29.50;20.10
13699;DHT22;6921;53.642;9.956;2022-09-03T12:55:06;29.70;19.00
13699;DHT22;6921;53.642;9.956;2022-09-03T12:57:18;29.60;18.40
13699;DHT22;6921;53.642;9.956;2022-09-03T12:59:24;30.00;18.10
13699;DHT22;6921;53.642;9.956;2022-09-03T13:01:31;29.80;16.10
13699;DHT22;6921;53.642;9.956;2022-09-03T13:03:43;29.30;15.80
13699;DHT22;6921;53.642;9.956;2022-09-03T13:05:51;28.10;16.60
13699;DHT22;6921;53.642;9.956;2022-09-03T13:07:58;27.30;17.60
13699;DHT22;6921;53.642;9.956;2022-09-03T13:10:12;26.80;18.20
13699;DHT22;6921;53.642;9.956;2022-09-03T13:12:27;26.40;18.80
13699;DHT22;6921;53.642;9.956;2022-09-03T13:14:41;26.40;18.40
13699;DHT22;6921;53.642;9.956;2022-09-03T13:19:17;25.80;19.10
13699;DHT22;6921;53.642;9.956;2022-09-03T13:21:34;25.50;19.20
13699;DHT22;6921;53.642;9.956;2022-09-03T13:23:57;25.50;20.40
13699;DHT22;6921;53.642;9.956;2022-09-03T13:26:14;25.60;19.50
13699;DHT22;6921;53.642;9.956;2022-09-03T13:28:29;25.60;19.80
13699;DHT22;6921;53.642;9.956;2022-09-03T13:30:39;25.50;19.30
13699;DHT22;6921;53.642;9.956;2022-09-03T13:32:51;25.40;20.10
13699;DHT22;6921;53.642;9.956;2022-09-03T13:35:03;25.30;20.20
13699;DHT22;6921;53.642;9.956;2022-09-03T13:37:16;25.00;18.90
13699;DHT22;6921;53.642;9.956;2022-09-03T13:41:34;24.80;20.30
13699;DHT22;6921;53.642;9.956;2022-09-03T13:43:42;24.70;19.70
13699;DHT22;6921;53.642;9.956;2022-09-03T13:45:52;25.00;19.80
13699;DHT22;6921;53.642;9.956;2022-09-03T13:48:05;25.00;19.40
13699;DHT22;6921;53.642;9.956;2022-09-03T13:50:30;25.10;20.40
13699;DHT22;6921;53.642;9.956;2022-09-03T13:52:41;24.80;20.40
13699;DHT22;6921;53.642;9.956;2022-09-03T13:54:45;24.50;20.20
13699;DHT22;6921;53.642;9.956;2022-09-03T13:56:56;24.50;20.40
13699;DHT22;6921;53.642;9.956;2022-09-03T13:59:06;24.80;20.90
13699;DHT22;6921;53.642;9.956;2022-09-03T14:01:17;24.90;20.40
13699;DHT22;6921;53.642;9.956;2022-09-03T14:03:29;25.20;20.10
13699;DHT22;6921;53.642;9.956;2022-09-03T14:05:46;25.50;19.50
13699;DHT22;6921;53.642;9.956;2022-09-03T14:08:01;25.70;19.80
13699;DHT22;6921;53.642;9.956;2022-09-03T14:10:20;25.90;19.80
13699;DHT22;6921;53.642;9.956;2022-09-03T14:12:33;26.00;19.40
13699;DHT22;6921;53.642;9.956;2022-09-03T14:14:44;25.90;19.70
13699;DHT22;6921;53.642;9.956;2022-09-03T14:16:55;25.50;19.40
13699;DHT22;6921;53.642;9.956;2022-09-03T14:19:02;25.30;19.90
13699;DHT22;6921;53.642;9.956;2022-09-03T14:21:13;25.10;20.00
13699;DHT22;6921;53.642;9.956;2022-09-03T14:23:27;25.60;20.10
13699;DHT22;6921;53.642;9.956;2022-09-03T14:29:50;25.10;19.30
13699;DHT22;6921;53.642;9.956;2022-09-03T14:32:16;24.90;19.40
13699;DHT22;6921;53.642;9.956;2022-09-03T14:36:36;25.30;19.00
13699;DHT22;6921;53.642;9.956;2022-09-03T14:39:11;24.80;18.70
13699;DHT22;6921;53.642;9.956;2022-09-03T14:41:27;24.90;19.60
13699;DHT22;6921;53.642;9.956;2022-09-03T14:44:06;25.00;19.20
13699;DHT22;6921;53.642;9.956;2022-09-03T14:46:22;24.80;19.30
13699;DHT22;6921;53.642;9.956;2022-09-03T14:48:41;24.80;19.80
13699;DHT22;6921;53.642;9.956;2022-09-03T14:50:56;24.80;19.30
13699;DHT22;6921;53.642;9.956;2022-09-03T14:53:15;24.70;18.90
13699;DHT22;6921;53.642;9.956;2022-09-03T14:58:23;24.30;19.10
13699;DHT22;6921;53.642;9.956;2022-09-03T15:00:32;24.20;20.00
13699;DHT22;6921;53.642;9.956;2022-09-03T15:02:52;24.20;19.40
13699;DHT22;6921;53.642;9.956;2022-09-03T15:05:08;24.00;19.10
13699;DHT22;6921;53.642;9.956;2022-09-03T15:07:23;24.00;20.20
13699;DHT22;6921;53.642;9.956;2022-09-03T15:09:35;24.00;19.80
13699;DHT22;6921;53.642;9.956;2022-09-03T15:11:47;23.90;19.60
13699;DHT22;6921;53.642;9.956;2022-09-03T15:13:53;24.10;19.90
13699;DHT22;6921;53.642;9.956;2022-09-03T15:16:11;24.20;19.60
13699;DHT22;6921;53.642;9.956;2022-09-03T15:18:28;24.20;19.10
13699;DHT22;6921;53.642;9.956;2022-09-03T15:20:39;24.00;19.50
13699;DHT22;6921;53.642;9.956;2022-09-03T15:23:06;24.00;19.10
13699;DHT22;6921;53.642;9.956;2022-09-03T15:25:20;24.00;19.20
13699;DHT22;6921;53.642;9.956;2022-09-03T15:27:53;23.90;19.90
13699;DHT22;6921;53.642;9.956;2022-09-03T15:30:04;23.80;19.70
13699;DHT22;6921;53.642;9.956;2022-09-03T15:32:16;23.70;19.30
13699;DHT22;6921;53.642;9.956;2022-09-03T15:34:39;23.60;19.60
13699;DHT22;6921;53.642;9.956;2022-09-03T15:36:46;23.50;19.40
13699;DHT22;6921;53.642;9.956;2022-09-03T15:38:55;23.50;19.30
13699;DHT22;6921;53.642;9.956;2022-09-03T15:41:03;23.50;19.40
13699;DHT22;6921;53.642;9.956;2022-09-03T15:43:17;23.50;19.10
13699;DHT22;6921;53.642;9.956;2022-09-03T15:45:31;23.70;19.30
13699;DHT22;6921;53.642;9.956;2022-09-03T15:47:40;23.70;19.50
13699;DHT22;6921;53.642;9.956;2022-09-03T15:49:57;23.70;19.70
13699;DHT22;6921;53.642;9.956;2022-09-03T15:52:29;23.60;19.20
13699;DHT22;6921;53.642;9.956;2022-09-03T15:54:40;23.40;19.80
13699;DHT22;6921;53.642;9.956;2022-09-03T15:56:51;23.30;19.70
13699;DHT22;6921;53.642;9.956;2022-09-03T15:59:00;23.20;20.30
13699;DHT22;6921;53.642;9.956;2022-09-03T16:01:10;25.40;22.20
13699;DHT22;6921;53.642;9.956;2022-09-03T16:03:32;23.10;20.70
13699;DHT22;6921;53.642;9.956;2022-09-03T16:05:40;23.20;19.60
13699;DHT22;6921;53.642;9.956;2022-09-03T16:08:07;23.20;19.50
13699;DHT22;6921;53.642;9.956;2022-09-03T16:10:13;23.30;19.70
13699;DHT22;6921;53.642;9.956;2022-09-03T16:12:32;23.40;19.90
13699;DHT22;6921;53.642;9.956;2022-09-03T16:14:39;23.40;20.20
13699;DHT22;6921;53.642;9.956;2022-09-03T16:16:53;23.40;20.40
13699;DHT22;6921;53.642;9.956;2022-09-03T16:19:03;23.40;21.00
13699;DHT22;6921;53.642;9.956;2022-09-03T16:21:13;23.40;20.50
13699;DHT22;6921;53.642;9.956;2022-09-03T16:23:25;23.40;20.60
13699;DHT22;6921;53.642;9.956;2022-09-03T16:25:33;23.30;20.80
13699;DHT22;6921;53.642;9.956;2022-09-03T16:27:41;23.30;20.80
13699;DHT22;6921;53.642;9.956;2022-09-03T16:29:57;23.10;20.60
13699;DHT22;6921;53.642;9.956;2022-09-03T16:32:10;23.10;20.80
13699;DHT22;6921;53.642;9.956;2022-09-03T16:34:20;23.10;21.00
13699;DHT22;6921;53.642;9.956;2022-09-03T16:36:38;23.00;21.20
13699;DHT22;6921;53.642;9.956;2022-09-03T16:38:48;23.00;21.10
13699;DHT22;6921;53.642;9.956;2022-09-03T16:40:57;23.00;21.40
13699;DHT22;6921;53.642;9.956;2022-09-03T16:43:06;23.00;21.60
13699;DHT22;6921;53.642;9.956;2022-09-03T16:45:37;23.00;21.40
13699;DHT22;6921;53.642;9.956;2022-09-03T16:47:55;22.90;21.10
13699;DHT22;6921;53.642;9.956;2022-09-03T16:50:12;22.80;21.60
13699;DHT22;6921;53.642;9.956;2022-09-03T16:54:51;22.60;20.80
13699;DHT22;6921;53.642;9.956;2022-09-03T16:57:07;22.70;22.20
13699;DHT22;6921;53.642;9.956;2022-09-03T16:59:27;22.70;21.10
13699;DHT22;6921;53.642;9.956;2022-09-03T17:01:43;22.60;21.30
13699;DHT22;6921;53.642;9.956;2022-09-03T17:06:50;22.50;21.30
13699;DHT22;6921;53.642;9.956;2022-09-03T17:11:17;22.40;21.10
13699;DHT22;6921;53.642;9.956;2022-09-03T17:13:45;22.30;21.70
13699;DHT22;6921;53.642;9.956;2022-09-03T17:15:54;22.20;22.00
13699;DHT22;6921;53.642;9.956;2022-09-03T17:22:55;22.20;22.20
13699;DHT22;6921;53.642;9.956;2022-09-03T17:25:17;22.10;22.20
13699;DHT22;6921;53.642;9.956;2022-09-03T17:27:34;22.00;22.60
13699;DHT22;6921;53.642;9.956;2022-09-03T17:29:57;22.00;22.90
13699;DHT22;6921;53.642;9.956;2022-09-03T17:32:11;21.90;22.90
13699;DHT22;6921;53.642;9.956;2022-09-03T17:34:23;21.70;22.90
13699;DHT22;6921;53.642;9.956;2022-09-03T17:41:22;21.50;23.70
13699;DHT22;6921;53.642;9.956;2022-09-03T17:43:40;21.40;24.10
13699;DHT22;6921;53.642;9.956;2022-09-03T17:45:50;21.40;23.90
13699;DHT22;6921;53.642;9.956;2022-09-03T17:48:13;21.30;23.80
13699;DHT22;6921;53.642;9.956;2022-09-03T17:50:22;21.20;24.20
13699;DHT22;6921;53.642;9.956;2022-09-03T17:52:30;21.10;24.10
13699;DHT22;6921;53.642;9.956;2022-09-03T17:54:41;21.10;24.70
13699;DHT22;6921;53.642;9.956;2022-09-03T17:56:52;21.00;24.20
13699;DHT22;6921;53.642;9.956;2022-09-03T17:59:04;20.90;25.00
13699;DHT22;6921;53.642;9.956;2022-09-03T18:01:16;20.80;24.70
13699;DHT22;6921;53.642;9.956;2022-09-03T18:03:23;20.80;25.00
13699;DHT22;6921;53.642;9.956;2022-09-03T18:05:31;20.70;24.90
13699;DHT22;6921;53.642;9.956;2022-09-03T18:07:43;20.80;25.80
13699;DHT22;6921;53.642;9.956;2022-09-03T18:09:53;20.60;25.80
13699;DHT22;6921;53.642;9.956;2022-09-03T18:12:06;20.60;26.30
13699;DHT22;6921;53.642;9.956;2022-09-03T18:14:19;20.50;26.00
13699;DHT22;6921;53.642;9.956;2022-09-03T18:16:27;20.50;26.70
13699;DHT22;6921;53.642;9.956;2022-09-03T18:18:32;20.70;26.80
13699;DHT22;6921;53.642;9.956;2022-09-03T18:20:41;20.30;26.40
13699;DHT22;6921;53.642;9.956;2022-09-03T18:23:28;20.30;26.70
13699;DHT22;6921;53.642;9.956;2022-09-03T18:25:55;20.20;27.30
13699;DHT22;6921;53.642;9.956;2022-09-03T18:28:19;20.00;27.20
13699;DHT22;6921;53.642;9.956;2022-09-03T18:35:29;19.90;28.10
13699;DHT22;6921;53.642;9.956;2022-09-03T18:40:15;19.70;28.20
13699;DHT22;6921;53.642;9.956;2022-09-03T18:42:49;19.70;28.40
13699;DHT22;6921;53.642;9.956;2022-09-03T18:48:07;19.60;29.30
13699;DHT22;6921;53.642;9.956;2022-09-03T18:50:36;19.50;29.40
13699;DHT22;6921;53.642;9.956;2022-09-03T18:53:04;19.40;29.70
13699;DHT22;6921;53.642;9.956;2022-09-03T18:55:40;19.40;29.20
13699;DHT22;6921;53.642;9.956;2022-09-03T19:00:33;19.20;29.80
13699;DHT22;6921;53.642;9.956;2022-09-03T19:03:14;19.20;30.10
13699;DHT22;6921;53.642;9.956;2022-09-03T19:05:46;19.20;30.50
13699;DHT22;6921;53.642;9.956;2022-09-03T19:08:16;19.10;30.70
13699;DHT22;6921;53.642;9.956;2022-09-03T19:10:46;19.10;31.10
13699;DHT22;6921;53.642;9.956;2022-09-03T19:15:45;18.80;31.80
13699;DHT22;6921;53.642;9.956;2022-09-03T19:18:13;18.90;32.20
13699;DHT22;6921;53.642;9.956;2022-09-03T19:20:44;18.80;32.20
13699;DHT22;6921;53.642;9.956;2022-09-03T19:23:09;18.80;32.70